Photometre #846[NE_1.6_Dp] Lerwick_MO AOT

File : 20220922_846.hum

22/09/2022,06:59:41,TEMP=14.4,BA=5.64,STAT.h
22/09/2022,06:59:42,TEMP=14.4,BA=5.64,STAT.h
22/09/2022,07:04:57,TEMP=14.4,BA=5.64,STAT.h
22/09/2022,07:04:58,TEMP=14.4,BA=5.64,STAT.h
22/09/2022,07:11:08,TEMP=14.4,BA=5.64,STAT.h
22/09/2022,07:11:09,TEMP=14.4,BA=5.64,STAT.h
22/09/2022,07:18:31,TEMP=14.4,BA=5.64,STAT.h
22/09/2022,07:18:32,TEMP=14.4,BA=5.64,STAT.h
22/09/2022,07:27:55,TEMP=13.0,BA=5.64,STAT.A,ExtBa=12.50
22/09/2022,07:39:06,TEMP=12.9,BA=5.64,STAT.A,ExtBa=12.40
22/09/2022,07:53:27,TEMP=12.8,BA=5.64,STAT.B,ExtBa=12.40
22/09/2022,08:00:26,TEMP=12.8,BA=5.64,STAT.A,ExtBa=12.40
22/09/2022,08:07:54,TEMP=13.1,BA=5.64,STAT.h
22/09/2022,08:16:56,TEMP=13.1,BA=5.64,STAT.h
22/09/2022,08:16:57,TEMP=13.1,BA=5.64,STAT.h
22/09/2022,08:27:24,TEMP=13.1,BA=5.64,STAT.h
22/09/2022,08:27:25,TEMP=13.1,BA=5.64,STAT.h
22/09/2022,08:39:44,TEMP=13.1,BA=5.64,STAT.h
22/09/2022,08:54:34,TEMP=13.1,BA=5.64,STAT.h
22/09/2022,08:57:50,TEMP=13.1,BA=5.64,STAT.h
22/09/2022,09:12:50,TEMP=13.1,BA=5.64,STAT.h
22/09/2022,09:12:56,TEMP=13.1,BA=5.64,STAT.h
22/09/2022,09:27:50,TEMP=13.1,BA=5.64,STAT.h
22/09/2022,09:27:56,TEMP=13.1,BA=5.64,STAT.h
22/09/2022,09:43:14,TEMP=13.2,BA=5.64,STAT.D,ExtBa=12.50
22/09/2022,09:58:15,TEMP=13.4,BA=5.64,STAT.F,ExtBa=12.40
22/09/2022,10:23:23,TEMP=15.1,BA=5.56,STAT.D,ExtBa=12.20
22/09/2022,10:28:14,TEMP=14.7,BA=5.56,STAT.D,ExtBa=12.30
22/09/2022,10:43:14,TEMP=14.2,BA=5.64,STAT.D,ExtBa=12.30
22/09/2022,10:58:16,TEMP=14.4,BA=5.64,STAT.F,ExtBa=12.30
22/09/2022,11:25:56,TEMP=16.0,BA=5.56,STAT.D,ExtBa=12.20
22/09/2022,11:28:14,TEMP=15.7,BA=5.56,STAT.D,ExtBa=12.30
22/09/2022,11:43:14,TEMP=14.8,BA=5.64,STAT.D,ExtBa=12.30
22/09/2022,11:58:16,TEMP=15.3,BA=5.64,STAT.F,ExtBa=12.30
22/09/2022,12:23:51,TEMP=16.0,BA=5.56,STAT.D,ExtBa=12.20
22/09/2022,12:28:14,TEMP=15.6,BA=5.56,STAT.D,ExtBa=12.30
22/09/2022,12:43:14,TEMP=16.1,BA=5.64,STAT.D,ExtBa=12.30
22/09/2022,12:58:15,TEMP=16.3,BA=5.64,STAT.F,ExtBa=12.30
22/09/2022,13:24:52,TEMP=17.2,BA=5.52,STAT.D,ExtBa=12.20
22/09/2022,13:28:14,TEMP=16.6,BA=5.52,STAT.D,ExtBa=12.30
22/09/2022,13:43:14,TEMP=16.5,BA=5.64,STAT.D,ExtBa=12.30
22/09/2022,13:58:15,TEMP=15.9,BA=5.64,STAT.F,ExtBa=12.30
22/09/2022,14:24:15,TEMP=16.7,BA=5.52,STAT.D,ExtBa=12.20
22/09/2022,14:28:53,TEMP=16.1,BA=5.52,STAT.D,ExtBa=12.30
22/09/2022,14:43:14,TEMP=15.8,BA=5.64,STAT.D,ExtBa=12.30
22/09/2022,14:58:15,TEMP=15.5,BA=5.64,STAT.F,ExtBa=12.30
22/09/2022,15:23:22,TEMP=15.8,BA=5.52,STAT.A,ExtBa=12.20
22/09/2022,15:25:33,TEMP=15.7,BA=5.52,STAT.C,ExtBa=12.20
22/09/2022,15:50:51,TEMP=15.5,BA=5.48,STAT.A,ExtBa=12.20
22/09/2022,15:56:19,TEMP=14.9,BA=5.48,STAT.A,ExtBa=12.20
22/09/2022,15:58:35,TEMP=15.1,BA=5.48,STAT.A,ExtBa=12.20
22/09/2022,16:01:50,TEMP=14.8,BA=5.52,STAT.A,ExtBa=12.20
22/09/2022,16:03:59,TEMP=14.9,BA=5.52,STAT.B,ExtBa=12.20
22/09/2022,16:17:24,TEMP=14.0,BA=5.60,STAT.A,ExtBa=12.30
22/09/2022,16:28:35,TEMP=14.2,BA=5.52,STAT.A,ExtBa=12.30
22/09/2022,16:37:34,TEMP=14.0,BA=5.56,STAT.A,ExtBa=12.30
22/09/2022,16:44:57,TEMP=13.8,BA=5.52,STAT.A,ExtBa=12.30
22/09/2022,16:51:08,TEMP=13.6,BA=5.64,STAT.A,ExtBa=12.20
22/09/2022,16:56:24,TEMP=13.5,BA=5.64,STAT.A,ExtBa=12.20